sensor_id;sensor_type;location;lat;lon;timestamp;P1;durP1;ratioP1;P2;durP2;ratioP2
14235;SDS011;7202;50.718;7.072;2023-07-31T00:01:36;6.30;;;2.63;;
14235;SDS011;7202;50.718;7.072;2023-07-31T00:04:04;5.95;;;2.85;;
14235;SDS011;7202;50.718;7.072;2023-07-31T00:06:33;6.13;;;2.50;;
14235;SDS011;7202;50.718;7.072;2023-07-31T00:09:02;3.92;;;2.45;;
14235;SDS011;7202;50.718;7.072;2023-07-31T00:11:30;4.82;;;2.53;;
14235;SDS011;7202;50.718;7.072;2023-07-31T00:13:59;4.47;;;2.70;;
14235;SDS011;7202;50.718;7.072;2023-07-31T00:16:27;6.75;;;2.38;;
14235;SDS011;7202;50.718;7.072;2023-07-31T00:18:57;4.03;;;2.30;;
14235;SDS011;7202;50.718;7.072;2023-07-31T00:21:26;7.07;;;2.95;;
14235;SDS011;7202;50.718;7.072;2023-07-31T00:23:55;3.65;;;2.40;;
14235;SDS011;7202;50.718;7.072;2023-07-31T00:26:23;6.03;;;2.70;;
14235;SDS011;7202;50.718;7.072;2023-07-31T00:28:55;3.10;;;2.40;;
14235;SDS011;7202;50.718;7.072;2023-07-31T00:31:27;4.65;;;2.28;;
14235;SDS011;7202;50.718;7.072;2023-07-31T00:34:01;3.80;;;2.20;;
14235;SDS011;7202;50.718;7.072;2023-07-31T00:36:30;5.90;;;2.42;;
14235;SDS011;7202;50.718;7.072;2023-07-31T00:38:59;4.18;;;2.33;;
14235;SDS011;7202;50.718;7.072;2023-07-31T00:41:27;4.68;;;2.45;;
14235;SDS011;7202;50.718;7.072;2023-07-31T00:43:56;3.78;;;2.10;;
14235;SDS011;7202;50.718;7.072;2023-07-31T00:46:24;3.20;;;2.20;;
14235;SDS011;7202;50.718;7.072;2023-07-31T00:48:54;2.72;;;1.90;;
14235;SDS011;7202;50.718;7.072;2023-07-31T00:51:25;4.53;;;2.08;;
14235;SDS011;7202;50.718;7.072;2023-07-31T00:53:55;2.35;;;1.80;;
14235;SDS011;7202;50.718;7.072;2023-07-31T00:56:24;3.67;;;2.10;;
14235;SDS011;7202;50.718;7.072;2023-07-31T00:58:54;2.90;;;2.10;;
14235;SDS011;7202;50.718;7.072;2023-07-31T01:01:23;3.80;;;1.83;;
14235;SDS011;7202;50.718;7.072;2023-07-31T01:03:52;4.80;;;2.00;;
14235;SDS011;7202;50.718;7.072;2023-07-31T01:06:23;3.42;;;2.00;;
14235;SDS011;7202;50.718;7.072;2023-07-31T01:09:02;4.22;;;2.20;;
14235;SDS011;7202;50.718;7.072;2023-07-31T01:11:38;4.20;;;2.17;;
14235;SDS011;7202;50.718;7.072;2023-07-31T01:14:17;2.28;;;1.98;;
14235;SDS011;7202;50.718;7.072;2023-07-31T01:16:46;2.80;;;1.85;;
14235;SDS011;7202;50.718;7.072;2023-07-31T01:19:14;3.28;;;2.03;;
14235;SDS011;7202;50.718;7.072;2023-07-31T01:25:00;6.15;;;2.17;;
14235;SDS011;7202;50.718;7.072;2023-07-31T01:27:42;4.63;;;1.90;;
14235;SDS011;7202;50.718;7.072;2023-07-31T01:30:19;2.47;;;1.83;;
14235;SDS011;7202;50.718;7.072;2023-07-31T01:32:53;3.53;;;2.05;;
14235;SDS011;7202;50.718;7.072;2023-07-31T01:35:22;5.82;;;2.40;;
14235;SDS011;7202;50.718;7.072;2023-07-31T01:37:52;2.92;;;2.20;;
14235;SDS011;7202;50.718;7.072;2023-07-31T01:40:21;2.63;;;1.90;;
14235;SDS011;7202;50.718;7.072;2023-07-31T01:42:51;4.18;;;1.92;;
14235;SDS011;7202;50.718;7.072;2023-07-31T01:45:19;3.50;;;2.30;;
14235;SDS011;7202;50.718;7.072;2023-07-31T01:47:48;4.80;;;2.50;;
14235;SDS011;7202;50.718;7.072;2023-07-31T01:50:16;7.28;;;2.38;;
14235;SDS011;7202;50.718;7.072;2023-07-31T01:52:45;3.55;;;2.20;;
14235;SDS011;7202;50.718;7.072;2023-07-31T01:55:14;6.03;;;2.58;;
14235;SDS011;7202;50.718;7.072;2023-07-31T01:57:42;3.85;;;2.40;;
14235;SDS011;7202;50.718;7.072;2023-07-31T02:00:13;3.17;;;2.33;;
14235;SDS011;7202;50.718;7.072;2023-07-31T02:02:43;4.13;;;2.10;;
14235;SDS011;7202;50.718;7.072;2023-07-31T02:05:12;3.47;;;2.28;;
14235;SDS011;7202;50.718;7.072;2023-07-31T02:07:40;3.67;;;2.63;;
14235;SDS011;7202;50.718;7.072;2023-07-31T02:10:09;5.32;;;2.50;;
14235;SDS011;7202;50.718;7.072;2023-07-31T02:12:37;5.13;;;2.80;;
14235;SDS011;7202;50.718;7.072;2023-07-31T02:15:06;3.22;;;2.38;;
14235;SDS011;7202;50.718;7.072;2023-07-31T02:17:36;4.80;;;2.60;;
14235;SDS011;7202;50.718;7.072;2023-07-31T02:20:06;6.22;;;2.45;;
14235;SDS011;7202;50.718;7.072;2023-07-31T02:22:36;4.57;;;2.50;;
14235;SDS011;7202;50.718;7.072;2023-07-31T02:25:04;3.55;;;2.40;;
14235;SDS011;7202;50.718;7.072;2023-07-31T02:27:33;4.70;;;2.88;;
14235;SDS011;7202;50.718;7.072;2023-07-31T02:30:02;5.00;;;2.78;;
14235;SDS011;7202;50.718;7.072;2023-07-31T02:32:31;4.15;;;2.67;;
14235;SDS011;7202;50.718;7.072;2023-07-31T02:35:01;4.47;;;2.30;;
14235;SDS011;7202;50.718;7.072;2023-07-31T02:37:29;3.97;;;2.35;;
14235;SDS011;7202;50.718;7.072;2023-07-31T02:39:58;4.05;;;2.30;;
14235;SDS011;7202;50.718;7.072;2023-07-31T02:42:28;4.35;;;2.25;;
14235;SDS011;7202;50.718;7.072;2023-07-31T02:44:57;3.85;;;2.30;;
14235;SDS011;7202;50.718;7.072;2023-07-31T02:47:26;5.72;;;2.75;;
14235;SDS011;7202;50.718;7.072;2023-07-31T02:49:55;7.72;;;2.83;;
14235;SDS011;7202;50.718;7.072;2023-07-31T02:52:25;4.63;;;2.60;;
14235;SDS011;7202;50.718;7.072;2023-07-31T02:54:53;4.75;;;2.42;;
14235;SDS011;7202;50.718;7.072;2023-07-31T02:57:22;8.38;;;3.40;;
14235;SDS011;7202;50.718;7.072;2023-07-31T02:59:50;4.68;;;2.45;;
14235;SDS011;7202;50.718;7.072;2023-07-31T03:02:19;6.00;;;2.30;;
14235;SDS011;7202;50.718;7.072;2023-07-31T03:04:48;4.75;;;2.55;;
14235;SDS011;7202;50.718;7.072;2023-07-31T03:07:17;5.78;;;2.67;;
14235;SDS011;7202;50.718;7.072;2023-07-31T03:09:47;5.13;;;2.80;;
14235;SDS011;7202;50.718;7.072;2023-07-31T03:12:16;5.40;;;2.47;;
14235;SDS011;7202;50.718;7.072;2023-07-31T03:14:44;6.03;;;2.40;;
14235;SDS011;7202;50.718;7.072;2023-07-31T03:17:13;7.93;;;2.90;;
14235;SDS011;7202;50.718;7.072;2023-07-31T03:19:41;5.28;;;2.90;;
14235;SDS011;7202;50.718;7.072;2023-07-31T03:22:10;5.07;;;2.63;;
14235;SDS011;7202;50.718;7.072;2023-07-31T03:24:39;3.67;;;2.30;;
14235;SDS011;7202;50.718;7.072;2023-07-31T03:27:08;6.35;;;2.60;;
14235;SDS011;7202;50.718;7.072;2023-07-31T03:29:37;5.30;;;3.03;;
14235;SDS011;7202;50.718;7.072;2023-07-31T03:32:06;4.40;;;2.70;;
14235;SDS011;7202;50.718;7.072;2023-07-31T03:34:35;5.40;;;2.85;;
14235;SDS011;7202;50.718;7.072;2023-07-31T03:37:05;5.65;;;2.70;;
14235;SDS011;7202;50.718;7.072;2023-07-31T03:39:36;6.68;;;2.60;;
14235;SDS011;7202;50.718;7.072;2023-07-31T03:42:04;4.57;;;2.30;;
14235;SDS011;7202;50.718;7.072;2023-07-31T03:44:36;5.22;;;2.53;;
14235;SDS011;7202;50.718;7.072;2023-07-31T03:47:04;5.10;;;2.58;;
14235;SDS011;7202;50.718;7.072;2023-07-31T03:49:33;6.22;;;3.05;;
14235;SDS011;7202;50.718;7.072;2023-07-31T03:52:02;4.70;;;3.08;;
14235;SDS011;7202;50.718;7.072;2023-07-31T03:54:31;4.70;;;2.58;;
14235;SDS011;7202;50.718;7.072;2023-07-31T03:57:00;4.45;;;2.70;;
14235;SDS011;7202;50.718;7.072;2023-07-31T03:59:28;4.68;;;2.78;;
14235;SDS011;7202;50.718;7.072;2023-07-31T04:01:58;6.28;;;2.60;;
14235;SDS011;7202;50.718;7.072;2023-07-31T04:04:27;7.13;;;3.30;;
14235;SDS011;7202;50.718;7.072;2023-07-31T04:06:55;5.60;;;2.70;;
14235;SDS011;7202;50.718;7.072;2023-07-31T04:09:24;4.32;;;2.47;;
14235;SDS011;7202;50.718;7.072;2023-07-31T04:11:53;4.75;;;2.47;;
14235;SDS011;7202;50.718;7.072;2023-07-31T04:14:21;6.38;;;2.75;;
14235;SDS011;7202;50.718;7.072;2023-07-31T04:16:50;5.10;;;2.35;;
14235;SDS011;7202;50.718;7.072;2023-07-31T04:19:21;7.13;;;2.85;;
14235;SDS011;7202;50.718;7.072;2023-07-31T04:21:49;5.70;;;2.72;;
14235;SDS011;7202;50.718;7.072;2023-07-31T04:24:18;4.68;;;3.05;;
14235;SDS011;7202;50.718;7.072;2023-07-31T04:26:51;4.82;;;3.20;;
14235;SDS011;7202;50.718;7.072;2023-07-31T04:29:20;5.35;;;2.95;;
14235;SDS011;7202;50.718;7.072;2023-07-31T04:31:49;4.80;;;3.05;;
14235;SDS011;7202;50.718;7.072;2023-07-31T04:34:17;6.88;;;3.33;;
14235;SDS011;7202;50.718;7.072;2023-07-31T04:36:47;4.18;;;2.95;;
14235;SDS011;7202;50.718;7.072;2023-07-31T04:39:16;6.07;;;3.05;;
14235;SDS011;7202;50.718;7.072;2023-07-31T04:41:44;5.72;;;2.97;;
14235;SDS011;7202;50.718;7.072;2023-07-31T04:44:13;4.95;;;2.85;;
14235;SDS011;7202;50.718;7.072;2023-07-31T04:46:42;6.40;;;3.05;;
14235;SDS011;7202;50.718;7.072;2023-07-31T04:49:10;7.63;;;3.20;;
14235;SDS011;7202;50.718;7.072;2023-07-31T04:51:39;5.63;;;3.20;;
14235;SDS011;7202;50.718;7.072;2023-07-31T04:54:09;6.35;;;3.00;;
14235;SDS011;7202;50.718;7.072;2023-07-31T04:56:39;4.15;;;2.50;;
14235;SDS011;7202;50.718;7.072;2023-07-31T04:59:07;5.13;;;2.60;;
14235;SDS011;7202;50.718;7.072;2023-07-31T05:01:36;4.25;;;2.90;;
14235;SDS011;7202;50.718;7.072;2023-07-31T05:04:05;4.93;;;3.17;;
14235;SDS011;7202;50.718;7.072;2023-07-31T05:06:35;5.15;;;3.15;;
14235;SDS011;7202;50.718;7.072;2023-07-31T05:09:04;4.97;;;3.13;;
14235;SDS011;7202;50.718;7.072;2023-07-31T05:11:34;4.60;;;3.00;;
14235;SDS011;7202;50.718;7.072;2023-07-31T05:14:02;3.80;;;2.88;;
14235;SDS011;7202;50.718;7.072;2023-07-31T05:16:31;3.97;;;2.67;;
14235;SDS011;7202;50.718;7.072;2023-07-31T05:19:00;5.22;;;3.10;;
14235;SDS011;7202;50.718;7.072;2023-07-31T05:21:31;3.75;;;2.83;;
14235;SDS011;7202;50.718;7.072;2023-07-31T05:23:59;5.00;;;2.78;;
14235;SDS011;7202;50.718;7.072;2023-07-31T05:26:28;4.88;;;2.97;;
14235;SDS011;7202;50.718;7.072;2023-07-31T05:28:58;5.13;;;2.72;;
14235;SDS011;7202;50.718;7.072;2023-07-31T05:31:27;4.10;;;2.78;;
14235;SDS011;7202;50.718;7.072;2023-07-31T05:33:55;4.85;;;2.30;;
14235;SDS011;7202;50.718;7.072;2023-07-31T05:36:24;4.40;;;2.80;;
14235;SDS011;7202;50.718;7.072;2023-07-31T05:38:52;4.72;;;2.75;;
14235;SDS011;7202;50.718;7.072;2023-07-31T05:41:21;5.03;;;2.92;;
14235;SDS011;7202;50.718;7.072;2023-07-31T05:43:49;3.78;;;2.65;;
14235;SDS011;7202;50.718;7.072;2023-07-31T05:46:20;3.28;;;2.45;;
14235;SDS011;7202;50.718;7.072;2023-07-31T05:48:48;4.30;;;2.40;;
14235;SDS011;7202;50.718;7.072;2023-07-31T05:51:17;3.38;;;2.47;;
14235;SDS011;7202;50.718;7.072;2023-07-31T05:53:45;3.92;;;2.50;;
14235;SDS011;7202;50.718;7.072;2023-07-31T05:56:14;3.38;;;2.58;;
14235;SDS011;7202;50.718;7.072;2023-07-31T05:58:43;6.55;;;2.53;;
14235;SDS011;7202;50.718;7.072;2023-07-31T06:01:11;3.83;;;2.45;;
14235;SDS011;7202;50.718;7.072;2023-07-31T06:03:41;3.72;;;2.30;;
14235;SDS011;7202;50.718;7.072;2023-07-31T06:06:10;3.17;;;2.72;;
14235;SDS011;7202;50.718;7.072;2023-07-31T06:08:40;3.88;;;2.40;;
14235;SDS011;7202;50.718;7.072;2023-07-31T06:11:08;3.10;;;2.42;;
14235;SDS011;7202;50.718;7.072;2023-07-31T06:13:37;6.05;;;2.88;;
14235;SDS011;7202;50.718;7.072;2023-07-31T06:16:08;4.43;;;2.85;;
14235;SDS011;7202;50.718;7.072;2023-07-31T06:18:38;3.50;;;2.67;;
14235;SDS011;7202;50.718;7.072;2023-07-31T06:21:08;4.53;;;2.70;;
14235;SDS011;7202;50.718;7.072;2023-07-31T06:23:36;6.78;;;2.92;;
14235;SDS011;7202;50.718;7.072;2023-07-31T06:26:05;6.72;;;3.03;;
14235;SDS011;7202;50.718;7.072;2023-07-31T06:28:34;5.15;;;2.80;;
14235;SDS011;7202;50.718;7.072;2023-07-31T06:31:03;5.20;;;2.97;;
14235;SDS011;7202;50.718;7.072;2023-07-31T06:33:32;4.97;;;3.53;;
14235;SDS011;7202;50.718;7.072;2023-07-31T06:36:00;6.45;;;3.20;;
14235;SDS011;7202;50.718;7.072;2023-07-31T06:38:30;4.45;;;3.03;;
14235;SDS011;7202;50.718;7.072;2023-07-31T06:40:59;7.15;;;3.25;;
14235;SDS011;7202;50.718;7.072;2023-07-31T06:43:28;6.50;;;3.35;;
14235;SDS011;7202;50.718;7.072;2023-07-31T06:45:56;6.68;;;3.83;;
14235;SDS011;7202;50.718;7.072;2023-07-31T06:48:25;5.90;;;3.65;;
14235;SDS011;7202;50.718;7.072;2023-07-31T06:50:53;6.65;;;3.53;;
14235;SDS011;7202;50.718;7.072;2023-07-31T06:53:22;6.20;;;4.15;;
14235;SDS011;7202;50.718;7.072;2023-07-31T06:55:52;5.88;;;3.45;;
14235;SDS011;7202;50.718;7.072;2023-07-31T06:58:21;6.90;;;3.50;;
14235;SDS011;7202;50.718;7.072;2023-07-31T07:00:50;5.30;;;3.58;;
14235;SDS011;7202;50.718;7.072;2023-07-31T07:03:19;5.57;;;3.67;;
14235;SDS011;7202;50.718;7.072;2023-07-31T07:05:47;9.65;;;3.50;;
14235;SDS011;7202;50.718;7.072;2023-07-31T07:08:16;6.30;;;3.60;;
14235;SDS011;7202;50.718;7.072;2023-07-31T07:10:44;6.13;;;3.40;;
14235;SDS011;7202;50.718;7.072;2023-07-31T07:13:15;6.45;;;4.50;;
14235;SDS011;7202;50.718;7.072;2023-07-31T07:15:47;5.55;;;3.17;;
14235;SDS011;7202;50.718;7.072;2023-07-31T07:18:16;4.97;;;3.55;;
14235;SDS011;7202;50.718;7.072;2023-07-31T07:20:46;5.47;;;3.30;;
14235;SDS011;7202;50.718;7.072;2023-07-31T07:23:15;5.60;;;3.33;;
14235;SDS011;7202;50.718;7.072;2023-07-31T07:25:44;7.20;;;3.60;;
14235;SDS011;7202;50.718;7.072;2023-07-31T07:28:13;8.20;;;3.97;;
14235;SDS011;7202;50.718;7.072;2023-07-31T07:30:43;4.35;;;3.17;;
14235;SDS011;7202;50.718;7.072;2023-07-31T07:33:12;4.80;;;3.70;;
14235;SDS011;7202;50.718;7.072;2023-07-31T07:35:41;5.82;;;3.00;;
14235;SDS011;7202;50.718;7.072;2023-07-31T07:38:09;5.90;;;3.80;;
14235;SDS011;7202;50.718;7.072;2023-07-31T07:40:38;7.00;;;3.58;;
14235;SDS011;7202;50.718;7.072;2023-07-31T07:43:07;4.07;;;3.22;;
14235;SDS011;7202;50.718;7.072;2023-07-31T07:45:36;7.07;;;3.47;;
14235;SDS011;7202;50.718;7.072;2023-07-31T07:48:06;6.05;;;4.05;;
14235;SDS011;7202;50.718;7.072;2023-07-31T07:50:34;5.13;;;3.28;;
14235;SDS011;7202;50.718;7.072;2023-07-31T07:53:03;4.95;;;3.80;;
14235;SDS011;7202;50.718;7.072;2023-07-31T07:55:32;8.70;;;4.00;;
14235;SDS011;7202;50.718;7.072;2023-07-31T07:58:01;8.38;;;4.20;;
14235;SDS011;7202;50.718;7.072;2023-07-31T08:00:30;6.60;;;4.28;;
14235;SDS011;7202;50.718;7.072;2023-07-31T08:02:58;8.20;;;4.30;;
14235;SDS011;7202;50.718;7.072;2023-07-31T08:05:28;5.88;;;3.90;;
14235;SDS011;7202;50.718;7.072;2023-07-31T08:08:00;10.68;;;4.53;;
14235;SDS011;7202;50.718;7.072;2023-07-31T08:10:29;9.48;;;4.03;;
14235;SDS011;7202;50.718;7.072;2023-07-31T08:12:58;7.03;;;3.75;;
14235;SDS011;7202;50.718;7.072;2023-07-31T08:15:26;8.02;;;3.65;;
14235;SDS011;7202;50.718;7.072;2023-07-31T08:17:55;6.72;;;3.60;;
14235;SDS011;7202;50.718;7.072;2023-07-31T08:20:24;7.18;;;3.55;;
14235;SDS011;7202;50.718;7.072;2023-07-31T08:22:55;5.78;;;3.03;;
14235;SDS011;7202;50.718;7.072;2023-07-31T08:25:24;5.30;;;3.20;;
14235;SDS011;7202;50.718;7.072;2023-07-31T08:27:53;7.82;;;3.38;;
14235;SDS011;7202;50.718;7.072;2023-07-31T08:30:22;6.60;;;3.20;;
14235;SDS011;7202;50.718;7.072;2023-07-31T08:32:51;6.70;;;3.78;;
14235;SDS011;7202;50.718;7.072;2023-07-31T08:35:20;5.45;;;3.30;;
14235;SDS011;7202;50.718;7.072;2023-07-31T08:37:48;6.70;;;3.78;;
14235;SDS011;7202;50.718;7.072;2023-07-31T08:40:18;6.47;;;3.50;;
14235;SDS011;7202;50.718;7.072;2023-07-31T08:42:49;8.73;;;3.20;;
14235;SDS011;7202;50.718;7.072;2023-07-31T08:45:21;7.07;;;3.30;;
14235;SDS011;7202;50.718;7.072;2023-07-31T08:47:50;7.50;;;3.78;;
14235;SDS011;7202;50.718;7.072;2023-07-31T08:50:20;7.97;;;3.92;;
14235;SDS011;7202;50.718;7.072;2023-07-31T08:52:50;7.38;;;3.40;;
14235;SDS011;7202;50.718;7.072;2023-07-31T08:55:22;7.03;;;3.60;;
14235;SDS011;7202;50.718;7.072;2023-07-31T08:57:51;6.97;;;3.10;;
14235;SDS011;7202;50.718;7.072;2023-07-31T09:00:20;7.15;;;3.17;;
14235;SDS011;7202;50.718;7.072;2023-07-31T09:02:52;8.60;;;3.28;;
14235;SDS011;7202;50.718;7.072;2023-07-31T09:05:24;7.45;;;2.97;;
14235;SDS011;7202;50.718;7.072;2023-07-31T09:07:55;5.88;;;2.65;;
14235;SDS011;7202;50.718;7.072;2023-07-31T09:10:26;7.30;;;3.25;;
14235;SDS011;7202;50.718;7.072;2023-07-31T09:12:55;5.18;;;3.10;;
14235;SDS011;7202;50.718;7.072;2023-07-31T09:15:24;3.75;;;2.67;;
14235;SDS011;7202;50.718;7.072;2023-07-31T09:18:04;4.90;;;3.08;;
14235;SDS011;7202;50.718;7.072;2023-07-31T09:20:34;5.32;;;2.92;;
14235;SDS011;7202;50.718;7.072;2023-07-31T09:23:05;5.43;;;2.75;;
14235;SDS011;7202;50.718;7.072;2023-07-31T09:25:37;8.43;;;3.22;;
14235;SDS011;7202;50.718;7.072;2023-07-31T09:28:07;5.30;;;2.78;;
14235;SDS011;7202;50.718;7.072;2023-07-31T09:30:44;3.97;;;2.80;;
14235;SDS011;7202;50.718;7.072;2023-07-31T09:33:15;3.78;;;2.75;;
14235;SDS011;7202;50.718;7.072;2023-07-31T09:35:44;4.10;;;3.08;;
14235;SDS011;7202;50.718;7.072;2023-07-31T09:38:13;4.25;;;2.80;;
14235;SDS011;7202;50.718;7.072;2023-07-31T09:40:45;6.95;;;3.08;;
14235;SDS011;7202;50.718;7.072;2023-07-31T09:43:16;3.50;;;2.65;;
14235;SDS011;7202;50.718;7.072;2023-07-31T09:45:47;6.32;;;2.78;;
14235;SDS011;7202;50.718;7.072;2023-07-31T09:48:16;3.30;;;2.28;;
14235;SDS011;7202;50.718;7.072;2023-07-31T09:50:46;4.07;;;2.30;;
14235;SDS011;7202;50.718;7.072;2023-07-31T09:53:16;3.78;;;2.20;;
14235;SDS011;7202;50.718;7.072;2023-07-31T09:55:46;5.70;;;2.22;;
14235;SDS011;7202;50.718;7.072;2023-07-31T09:58:15;4.75;;;2.10;;
14235;SDS011;7202;50.718;7.072;2023-07-31T10:00:43;3.47;;;2.10;;
14235;SDS011;7202;50.718;7.072;2023-07-31T10:03:13;4.20;;;1.88;;
14235;SDS011;7202;50.718;7.072;2023-07-31T10:05:45;3.67;;;2.00;;
14235;SDS011;7202;50.718;7.072;2023-07-31T10:08:18;3.60;;;2.22;;
14235;SDS011;7202;50.718;7.072;2023-07-31T10:10:51;3.42;;;2.40;;
14235;SDS011;7202;50.718;7.072;2023-07-31T10:13:19;10.65;;;2.58;;
14235;SDS011;7202;50.718;7.072;2023-07-31T10:15:49;3.92;;;2.22;;
14235;SDS011;7202;50.718;7.072;2023-07-31T10:18:19;3.95;;;2.20;;
14235;SDS011;7202;50.718;7.072;2023-07-31T10:20:48;3.47;;;1.90;;
14235;SDS011;7202;50.718;7.072;2023-07-31T10:23:17;4.63;;;2.30;;
14235;SDS011;7202;50.718;7.072;2023-07-31T10:25:46;4.20;;;2.20;;
14235;SDS011;7202;50.718;7.072;2023-07-31T10:28:17;2.95;;;2.00;;
14235;SDS011;7202;50.718;7.072;2023-07-31T10:30:46;2.13;;;1.88;;
14235;SDS011;7202;50.718;7.072;2023-07-31T10:33:17;2.60;;;1.90;;
14235;SDS011;7202;50.718;7.072;2023-07-31T10:35:47;3.50;;;2.42;;
14235;SDS011;7202;50.718;7.072;2023-07-31T10:38:16;4.10;;;1.92;;
14235;SDS011;7202;50.718;7.072;2023-07-31T10:40:44;3.85;;;1.85;;
14235;SDS011;7202;50.718;7.072;2023-07-31T10:43:24;2.42;;;1.92;;
14235;SDS011;7202;50.718;7.072;2023-07-31T10:45:54;3.70;;;1.83;;
14235;SDS011;7202;50.718;7.072;2023-07-31T10:48:23;4.55;;;1.63;;
14235;SDS011;7202;50.718;7.072;2023-07-31T10:50:52;4.20;;;1.65;;
14235;SDS011;7202;50.718;7.072;2023-07-31T10:53:24;2.53;;;1.55;;
14235;SDS011;7202;50.718;7.072;2023-07-31T10:55:56;3.65;;;1.52;;
14235;SDS011;7202;50.718;7.072;2023-07-31T10:58:28;1.85;;;1.48;;
14235;SDS011;7202;50.718;7.072;2023-07-31T11:00:59;6.25;;;1.67;;
14235;SDS011;7202;50.718;7.072;2023-07-31T11:03:42;2.25;;;1.60;;
14235;SDS011;7202;50.718;7.072;2023-07-31T11:06:12;2.05;;;1.30;;
14235;SDS011;7202;50.718;7.072;2023-07-31T11:08:45;2.42;;;1.30;;
14235;SDS011;7202;50.718;7.072;2023-07-31T11:11:15;3.08;;;1.33;;
14235;SDS011;7202;50.718;7.072;2023-07-31T11:13:48;2.78;;;1.38;;
14235;SDS011;7202;50.718;7.072;2023-07-31T11:16:19;2.72;;;1.70;;
14235;SDS011;7202;50.718;7.072;2023-07-31T11:18:49;3.60;;;1.58;;
14235;SDS011;7202;50.718;7.072;2023-07-31T11:21:20;4.68;;;1.45;;
14235;SDS011;7202;50.718;7.072;2023-07-31T11:23:51;2.50;;;1.65;;
14235;SDS011;7202;50.718;7.072;2023-07-31T11:26:20;2.97;;;1.70;;
14235;SDS011;7202;50.718;7.072;2023-07-31T11:28:50;2.25;;;1.30;;
14235;SDS011;7202;50.718;7.072;2023-07-31T11:31:19;2.55;;;1.30;;
14235;SDS011;7202;50.718;7.072;2023-07-31T11:33:49;2.63;;;1.25;;
14235;SDS011;7202;50.718;7.072;2023-07-31T11:36:18;2.85;;;1.40;;
14235;SDS011;7202;50.718;7.072;2023-07-31T11:38:48;1.77;;;1.38;;
14235;SDS011;7202;50.718;7.072;2023-07-31T11:41:16;3.03;;;1.30;;
14235;SDS011;7202;50.718;7.072;2023-07-31T11:43:45;1.85;;;1.23;;
14235;SDS011;7202;50.718;7.072;2023-07-31T11:46:15;1.50;;;1.30;;
14235;SDS011;7202;50.718;7.072;2023-07-31T11:48:46;1.95;;;1.10;;
14235;SDS011;7202;50.718;7.072;2023-07-31T11:51:14;2.08;;;1.55;;
14235;SDS011;7202;50.718;7.072;2023-07-31T11:53:44;1.52;;;1.20;;
14235;SDS011;7202;50.718;7.072;2023-07-31T11:56:16;2.17;;;1.40;;
14235;SDS011;7202;50.718;7.072;2023-07-31T11:58:46;1.70;;;1.27;;
14235;SDS011;7202;50.718;7.072;2023-07-31T12:01:19;4.10;;;1.40;;
14235;SDS011;7202;50.718;7.072;2023-07-31T12:03:49;1.92;;;1.20;;
14235;SDS011;7202;50.718;7.072;2023-07-31T12:06:18;2.42;;;1.50;;
14235;SDS011;7202;50.718;7.072;2023-07-31T12:08:47;5.13;;;1.20;;
14235;SDS011;7202;50.718;7.072;2023-07-31T12:11:16;1.67;;;1.38;;
14235;SDS011;7202;50.718;7.072;2023-07-31T12:13:45;1.40;;;1.30;;
14235;SDS011;7202;50.718;7.072;2023-07-31T12:16:14;1.77;;;1.45;;
14235;SDS011;7202;50.718;7.072;2023-07-31T12:18:44;3.13;;;2.25;;
14235;SDS011;7202;50.718;7.072;2023-07-31T12:21:13;3.40;;;1.90;;
14235;SDS011;7202;50.718;7.072;2023-07-31T12:23:43;2.58;;;1.80;;
14235;SDS011;7202;50.718;7.072;2023-07-31T12:26:12;2.85;;;1.95;;
14235;SDS011;7202;50.718;7.072;2023-07-31T12:28:42;2.65;;;1.90;;
14235;SDS011;7202;50.718;7.072;2023-07-31T12:31:13;3.63;;;2.03;;
14235;SDS011;7202;50.718;7.072;2023-07-31T12:33:45;3.13;;;2.50;;
14235;SDS011;7202;50.718;7.072;2023-07-31T12:36:17;3.13;;;2.30;;
14235;SDS011;7202;50.718;7.072;2023-07-31T12:38:47;3.80;;;2.35;;
14235;SDS011;7202;50.718;7.072;2023-07-31T12:41:17;3.30;;;2.58;;
14235;SDS011;7202;50.718;7.072;2023-07-31T12:43:46;3.03;;;2.42;;
14235;SDS011;7202;50.718;7.072;2023-07-31T12:46:15;3.15;;;2.70;;
14235;SDS011;7202;50.718;7.072;2023-07-31T12:48:45;3.83;;;2.78;;
14235;SDS011;7202;50.718;7.072;2023-07-31T12:51:14;3.38;;;2.40;;
14235;SDS011;7202;50.718;7.072;2023-07-31T12:53:42;5.70;;;2.65;;
14235;SDS011;7202;50.718;7.072;2023-07-31T12:56:11;4.03;;;2.75;;
14235;SDS011;7202;50.718;7.072;2023-07-31T12:58:39;3.78;;;2.65;;
14235;SDS011;7202;50.718;7.072;2023-07-31T13:01:08;3.35;;;2.40;;
14235;SDS011;7202;50.718;7.072;2023-07-31T13:03:36;4.93;;;2.95;;
14235;SDS011;7202;50.718;7.072;2023-07-31T13:06:07;4.53;;;3.22;;
14235;SDS011;7202;50.718;7.072;2023-07-31T13:08:35;5.03;;;2.83;;
14235;SDS011;7202;50.718;7.072;2023-07-31T13:11:04;4.22;;;3.28;;
14235;SDS011;7202;50.718;7.072;2023-07-31T13:13:33;4.75;;;3.38;;
14235;SDS011;7202;50.718;7.072;2023-07-31T13:16:01;3.55;;;2.90;;
14235;SDS011;7202;50.718;7.072;2023-07-31T13:18:30;4.68;;;3.13;;
14235;SDS011;7202;50.718;7.072;2023-07-31T13:20:58;4.43;;;3.03;;
14235;SDS011;7202;50.718;7.072;2023-07-31T13:23:28;5.55;;;3.30;;
14235;SDS011;7202;50.718;7.072;2023-07-31T13:25:57;3.00;;;2.70;;
14235;SDS011;7202;50.718;7.072;2023-07-31T13:28:25;4.82;;;3.25;;
14235;SDS011;7202;50.718;7.072;2023-07-31T13:30:54;5.93;;;2.80;;
14235;SDS011;7202;50.718;7.072;2023-07-31T13:33:23;2.97;;;2.50;;
14235;SDS011;7202;50.718;7.072;2023-07-31T13:36:04;5.60;;;2.47;;
14235;SDS011;7202;50.718;7.072;2023-07-31T13:38:34;2.83;;;2.17;;
14235;SDS011;7202;50.718;7.072;2023-07-31T13:41:02;3.25;;;2.33;;
14235;SDS011;7202;50.718;7.072;2023-07-31T13:43:32;3.22;;;2.05;;
14235;SDS011;7202;50.718;7.072;2023-07-31T13:46:00;2.28;;;2.00;;
14235;SDS011;7202;50.718;7.072;2023-07-31T13:48:33;2.83;;;2.17;;
14235;SDS011;7202;50.718;7.072;2023-07-31T13:51:02;2.75;;;1.80;;
14235;SDS011;7202;50.718;7.072;2023-07-31T13:53:31;2.65;;;1.70;;
14235;SDS011;7202;50.718;7.072;2023-07-31T13:56:01;3.92;;;1.88;;
14235;SDS011;7202;50.718;7.072;2023-07-31T13:58:30;2.00;;;1.50;;
14235;SDS011;7202;50.718;7.072;2023-07-31T14:00:59;2.30;;;1.73;;
14235;SDS011;7202;50.718;7.072;2023-07-31T14:03:27;2.03;;;1.80;;
14235;SDS011;7202;50.718;7.072;2023-07-31T14:05:56;2.45;;;1.90;;
14235;SDS011;7202;50.718;7.072;2023-07-31T14:08:25;2.15;;;1.92;;
14235;SDS011;7202;50.718;7.072;2023-07-31T14:10:55;2.40;;;2.05;;
14235;SDS011;7202;50.718;7.072;2023-07-31T14:13:23;4.10;;;2.00;;
14235;SDS011;7202;50.718;7.072;2023-07-31T14:15:52;4.85;;;2.17;;
14235;SDS011;7202;50.718;7.072;2023-07-31T14:18:20;2.40;;;1.90;;
14235;SDS011;7202;50.718;7.072;2023-07-31T14:20:49;2.22;;;1.80;;
14235;SDS011;7202;50.718;7.072;2023-07-31T14:23:18;2.03;;;1.58;;
14235;SDS011;7202;50.718;7.072;2023-07-31T14:25:47;2.03;;;1.48;;
14235;SDS011;7202;50.718;7.072;2023-07-31T14:28:17;2.42;;;1.63;;
14235;SDS011;7202;50.718;7.072;2023-07-31T14:30:46;2.22;;;1.88;;
14235;SDS011;7202;50.718;7.072;2023-07-31T14:33:15;1.90;;;1.70;;
14235;SDS011;7202;50.718;7.072;2023-07-31T14:35:43;2.67;;;1.77;;
14235;SDS011;7202;50.718;7.072;2023-07-31T14:38:12;2.85;;;1.75;;
14235;SDS011;7202;50.718;7.072;2023-07-31T14:40:41;2.00;;;1.80;;
14235;SDS011;7202;50.718;7.072;2023-07-31T14:43:10;3.45;;;1.73;;
14235;SDS011;7202;50.718;7.072;2023-07-31T14:45:40;2.45;;;1.70;;
14235;SDS011;7202;50.718;7.072;2023-07-31T14:48:08;4.45;;;1.92;;
14235;SDS011;7202;50.718;7.072;2023-07-31T14:50:37;2.90;;;1.95;;
14235;SDS011;7202;50.718;7.072;2023-07-31T14:53:06;3.05;;;2.50;;
14235;SDS011;7202;50.718;7.072;2023-07-31T14:55:34;2.20;;;1.67;;
14235;SDS011;7202;50.718;7.072;2023-07-31T14:58:03;3.78;;;2.13;;
14235;SDS011;7202;50.718;7.072;2023-07-31T15:00:31;2.28;;;1.55;;
14235;SDS011;7202;50.718;7.072;2023-07-31T15:03:01;2.50;;;1.85;;
14235;SDS011;7202;50.718;7.072;2023-07-31T15:05:30;2.10;;;1.85;;
14235;SDS011;7202;50.718;7.072;2023-07-31T15:07:59;4.22;;;2.03;;
14235;SDS011;7202;50.718;7.072;2023-07-31T15:10:28;1.92;;;1.75;;
14235;SDS011;7202;50.718;7.072;2023-07-31T15:12:56;3.60;;;1.90;;
14235;SDS011;7202;50.718;7.072;2023-07-31T15:15:25;2.22;;;1.88;;
14235;SDS011;7202;50.718;7.072;2023-07-31T15:17:54;5.30;;;1.90;;